Time;durP1;ratioP1;P1;durP2;ratioP2;P2;SDS_P1;SDS_P2;PMS_P1;PMS_P2;Temp;Humidity;BMP_temperature;BMP_pressure;BME280_temperature;BME280_humidity;BME280_pressure;Samples;Min_cycle;Max_cycle;Signal;HPM_P1;HPM_P2
2021/01/28 00:01:09;;;;;;;12.15;7.53;;;;;;;0.94;100.00;97112.84;5056227;28;20075;-81
2021/01/28 00:03:37;;;;;;;11.43;7.93;;;;;;;1.01;100.00;97123.22;5061051;28;20048;-79
2021/01/28 00:06:05;;;;;;;12.35;8.15;;;;;;;0.99;100.00;97120.81;5062874;28;20049;-80
2021/01/28 00:08:31;;;;;;;11.48;7.97;;;;;;;0.92;100.00;97095.50;5059850;28;20615;-80
2021/01/28 00:10:57;;;;;;;12.80;8.70;;;;;;;0.94;100.00;97090.72;5058607;28;20048;-80
2021/01/28 00:13:24;;;;;;;13.40;8.75;;;;;;;0.87;100.00;97092.84;5057861;28;20041;-80
2021/01/28 00:15:50;;;;;;;17.00;10.18;;;;;;;0.81;100.00;97089.38;5061951;28;20045;-80
2021/01/28 00:18:17;;;;;;;18.17;10.10;;;;;;;0.77;100.00;97090.97;5061532;28;20047;-81
2021/01/28 00:20:49;;;;;;;15.65;9.82;;;;;;;0.74;100.00;97107.50;5057910;28;20056;-82
2021/01/28 00:23:17;;;;;;;14.75;9.48;;;;;;;0.79;100.00;97102.16;5055093;28;20037;-81
2021/01/28 00:25:45;;;;;;;14.10;9.20;;;;;;;0.77;100.00;97095.50;5053918;28;20048;-80
2021/01/28 00:28:14;;;;;;;14.25;9.25;;;;;;;0.78;100.00;97081.91;5038443;28;20281;-81
2021/01/28 00:30:43;;;;;;;17.45;10.20;;;;;;;0.77;100.00;97083.00;5039427;28;20121;-80
2021/01/28 00:33:13;;;;;;;13.05;8.70;;;;;;;0.83;100.00;97084.56;5039198;28;20184;-80
2021/01/28 00:35:41;;;;;;;13.55;8.50;;;;;;;0.88;100.00;97089.91;5040007;28;20049;-80
2021/01/28 00:38:14;;;;;;;12.98;8.50;;;;;;;0.98;100.00;97084.56;5038401;28;20056;-81
2021/01/28 00:40:42;;;;;;;12.00;7.85;;;;;;;1.00;100.00;97095.78;5057411;28;20049;-81
2021/01/28 00:43:10;;;;;;;14.80;8.52;;;;;;;0.99;100.00;97099.50;5060684;28;20075;-80
2021/01/28 00:45:36;;;;;;;15.27;8.75;;;;;;;0.99;100.00;97086.19;5062961;28;20148;-80
2021/01/28 00:48:03;;;;;;;12.55;8.10;;;;;;;1.01;100.00;97077.91;5057274;28;20123;-81
2021/01/28 00:50:32;;;;;;;12.10;7.68;;;;;;;1.03;100.00;97079.25;5057967;28;20045;-80
2021/01/28 00:52:59;;;;;;;11.20;7.60;;;;;;;1.09;100.00;97083.50;5057885;28;20041;-80
2021/01/28 00:55:26;;;;;;;11.75;7.65;;;;;;;1.07;100.00;97069.66;5059538;28;20290;-80
2021/01/28 00:57:52;;;;;;;14.07;7.78;;;;;;;1.07;100.00;97064.34;5062142;28;20049;-81
2021/01/28 01:00:35;;;;;;;9.77;7.05;;;;;;;1.12;100.00;97076.84;5071755;28;20049;-80
2021/01/28 01:03:01;;;;;;;10.00;7.03;;;;;;;1.14;100.00;97075.50;5042347;28;20476;-79
2021/01/28 01:05:34;;;;;;;12.68;7.20;;;;;;;1.14;100.00;97067.50;5067339;28;20045;-80
2021/01/28 01:08:02;;;;;;;11.73;7.38;;;;;;;1.08;100.00;97065.94;5058549;28;20041;-80
2021/01/28 01:10:59;;;;;;;11.07;7.30;;;;;;;1.15;100.00;97065.66;5063552;28;20098;-80
2021/01/28 01:13:28;;;;;;;10.88;7.68;;;;;;;1.11;100.00;97062.72;5060756;28;20093;-81
2021/01/28 01:15:54;;;;;;;9.93;6.47;;;;;;;1.20;100.00;97071.78;5064781;28;20484;-80
2021/01/28 01:18:26;;;;;;;12.18;6.35;;;;;;;1.29;100.00;97056.06;5067967;28;20104;-79
2021/01/28 01:20:53;;;;;;;9.55;6.43;;;;;;;1.25;100.00;97050.44;5064758;28;20060;-79
2021/01/28 01:23:20;;;;;;;10.52;6.47;;;;;;;1.26;100.00;97038.69;5066067;28;20382;-79
2021/01/28 01:25:54;;;;;;;10.90;6.65;;;;;;;1.22;100.00;97039.50;5064229;28;20140;-80
2021/01/28 01:28:21;;;;;;;11.13;6.68;;;;;;;1.19;100.00;97038.19;5061381;28;20123;-79
2021/01/28 01:30:48;;;;;;;11.60;7.15;;;;;;;1.23;100.00;97043.78;5061808;28;20045;-80
2021/01/28 01:33:14;;;;;;;12.05;7.20;;;;;;;1.18;100.00;97041.13;5062061;28;20051;-78
2021/01/28 01:35:40;;;;;;;11.43;7.53;;;;;;;1.16;100.00;97041.38;5046440;28;20288;-79
2021/01/28 01:38:08;;;;;;;12.15;7.47;;;;;;;1.22;100.00;97034.97;5047507;28;20369;-80
2021/01/28 01:40:38;;;;;;;11.38;7.13;;;;;;;1.24;100.00;97038.19;5066563;28;20100;-79
2021/01/28 01:43:06;;;;;;;11.30;7.15;;;;;;;1.20;100.00;97026.47;5066589;28;20053;-79
2021/01/28 01:45:35;;;;;;;10.25;6.78;;;;;;;1.21;100.00;97025.38;5048220;28;20077;-79
2021/01/28 01:48:15;;;;;;;10.20;6.90;;;;;;;1.18;100.00;97012.63;5064538;28;20041;-80
2021/01/28 01:50:44;;;;;;;10.35;6.75;;;;;;;1.23;100.00;97009.13;5060120;28;20087;-81
2021/01/28 01:53:19;;;;;;;9.38;6.55;;;;;;;1.25;100.00;97007.00;5057658;28;20068;-81
2021/01/28 01:55:48;;;;;;;12.55;7.47;;;;;;;1.23;100.00;97001.13;5055814;28;20067;-80
2021/01/28 01:58:25;;;;;;;10.00;6.85;;;;;;;1.23;100.00;96991.28;5055559;28;20045;-81
2021/01/28 02:00:51;;;;;;;10.77;7.03;;;;;;;1.26;100.00;97000.59;5042187;28;20065;-79
2021/01/28 02:03:18;;;;;;;10.55;6.80;;;;;;;1.26;100.00;96993.38;5054434;28;20076;-81
2021/01/28 02:05:54;;;;;;;9.57;6.63;;;;;;;1.20;100.00;96986.47;5071016;28;20052;-81
2021/01/28 02:08:20;;;;;;;9.05;6.13;;;;;;;1.27;100.00;96979.00;5055337;28;20039;-81
2021/01/28 02:10:47;;;;;;;9.82;5.90;;;;;;;1.32;100.00;96985.41;5055421;28;20351;-80
2021/01/28 02:13:15;;;;;;;10.43;5.65;;;;;;;1.34;100.00;96993.91;5053719;28;20216;-80
2021/01/28 02:15:41;;;;;;;12.65;5.85;;;;;;;1.31;100.00;96981.13;5054335;28;20052;-80
2021/01/28 02:18:07;;;;;;;10.00;6.22;;;;;;;1.32;100.00;96991.50;5055131;28;20053;-80
2021/01/28 02:20:53;;;;;;;10.52;6.35;;;;;;;1.25;100.00;96977.66;5052760;28;20143;-80
2021/01/28 02:23:28;;;;;;;10.07;6.10;;;;;;;1.32;100.00;96988.06;5044682;28;20382;-81
2021/01/28 02:25:54;;;;;;;;;;;;;;;1.30;100.00;96982.97;5046033;28;20049;-82
2021/01/28 02:28:20;;;;;;;10.52;6.18;;;;;;;1.21;100.00;96969.41;5068699;28;19933;-81
2021/01/28 02:30:50;;;;;;;11.27;6.90;;;;;;;1.30;100.00;96982.97;5049432;28;20131;-82
2021/01/28 02:33:34;;;;;;;10.68;6.30;;;;;;;1.31;100.00;96983.78;5041012;28;20053;-81
2021/01/28 02:36:01;;;;;;;10.40;6.43;;;;;;;1.31;100.00;96981.91;5039343;28;20037;-81
2021/01/28 02:38:32;;;;;;;10.45;6.97;;;;;;;1.26;100.00;96984.59;5040745;28;20098;-82
2021/01/28 02:40:58;;;;;;;12.07;6.72;;;;;;;1.31;100.00;96992.59;5056488;28;20447;-81
2021/01/28 02:43:25;;;;;;;10.32;6.47;;;;;;;1.31;100.00;96989.91;5041006;28;20049;-81
2021/01/28 02:46:01;;;;;;;10.57;6.95;;;;;;;1.29;100.00;96988.59;5042660;28;20049;-80
2021/01/28 02:48:29;;;;;;;11.65;7.28;;;;;;;1.27;100.00;96980.84;5041790;28;20042;-80
2021/01/28 02:50:55;;;;;;;9.70;6.47;;;;;;;1.35;100.00;96982.16;5038698;28;20045;-80
2021/01/28 02:53:22;;;;;;;9.13;6.15;;;;;;;1.37;100.00;96969.38;5037911;28;20049;-81
2021/01/28 02:55:48;;;;;;;8.45;5.80;;;;;;;1.44;100.00;96972.53;5054167;28;20060;-81
2021/01/28 02:58:15;;;;;;;10.80;6.45;;;;;;;1.39;100.00;96959.22;5039692;28;20053;-80
2021/01/28 03:00:41;;;;;;;10.52;6.35;;;;;;;1.43;100.00;96962.94;5056177;28;20497;-81
2021/01/28 03:03:13;;;;;;;9.35;5.90;;;;;;;1.54;100.00;96967.16;5039863;28;20049;-80
2021/01/28 03:05:39;;;;;;;8.40;5.78;;;;;;;1.54;100.00;96961.84;5043435;28;20049;-82
2021/01/28 03:08:06;;;;;;;9.80;6.32;;;;;;;1.58;100.00;96968.19;5037534;28;20524;-81
2021/01/28 03:10:33;;;;;;;10.23;5.97;;;;;;;1.60;100.00;96952.75;5038471;28;20052;-81
2021/01/28 03:13:02;;;;;;;9.35;6.35;;;;;;;1.66;100.00;96965.78;5055244;28;20045;-78
2021/01/28 03:15:28;;;;;;;8.77;5.72;;;;;;;1.69;100.00;96948.41;5078241;23;20108;-80
2021/01/28 03:17:55;;;;;;;8.95;6.22;;;;;;;1.67;100.00;96954.03;5067479;28;20055;-80
2021/01/28 03:20:24;;;;;;;9.43;5.80;;;;;;;1.70;100.00;96961.47;5032551;28;20041;-81
2021/01/28 03:22:51;;;;;;;9.25;6.13;;;;;;;1.72;100.00;96945.22;5048739;28;20052;-80
2021/01/28 03:25:19;;;;;;;10.90;6.53;;;;;;;1.71;100.00;96946.25;5066158;28;20464;-81
2021/01/28 03:27:46;;;;;;;11.40;6.60;;;;;;;1.60;100.00;96950.84;5048460;28;20067;-81
2021/01/28 03:30:20;;;;;;;12.05;7.03;;;;;;;1.54;100.00;96945.84;5067040;28;20085;-81
2021/01/28 03:32:47;;;;;;;10.00;6.45;;;;;;;1.52;100.00;96934.66;5045768;28;20055;-81
2021/01/28 03:35:14;;;;;;;12.02;7.38;;;;;;;1.57;100.00;96935.41;5067605;28;20050;-82
2021/01/28 03:37:40;;;;;;;10.93;6.88;;;;;;;1.56;100.00;96927.69;5047826;28;20045;-81
2021/01/28 03:40:08;;;;;;;13.18;7.13;;;;;;;1.58;100.00;96922.84;5064945;28;20136;-81
2021/01/28 03:42:34;;;;;;;11.95;7.20;;;;;;;1.63;100.00;96928.97;5046295;28;20052;-81
2021/01/28 03:45:00;;;;;;;13.10;7.50;;;;;;;1.58;100.00;96933.53;5046745;28;20104;-81
2021/01/28 03:47:27;;;;;;;10.90;7.18;;;;;;;1.58;100.00;96926.34;5046278;28;20052;-82
2021/01/28 03:49:53;;;;;;;8.38;5.70;;;;;;;1.66;100.00;96932.97;5065394;28;20128;-81
2021/01/28 03:52:20;;;;;;;11.40;6.40;;;;;;;1.70;100.00;96920.69;5046464;28;20143;-81
2021/01/28 03:54:47;;;;;;;12.25;7.60;;;;;;;1.66;100.00;96912.41;5064967;28;20045;-80
2021/01/28 03:57:13;;;;;;;11.57;6.43;;;;;;;1.64;100.00;96908.44;5029888;28;20488;-81
2021/01/28 03:59:39;;;;;;;11.80;7.30;;;;;;;1.63;100.00;96907.63;5045807;28;20041;-80
2021/01/28 04:02:06;;;;;;;12.73;6.80;;;;;;;1.65;100.00;96910.03;5028616;28;20118;-80
2021/01/28 04:04:32;;;;;;;11.55;7.28;;;;;;;1.64;100.00;96908.44;5028585;28;20272;-80
2021/01/28 04:06:59;;;;;;;11.20;6.72;;;;;;;1.67;100.00;96890.03;5045325;28;20049;-80
2021/01/28 04:09:25;;;;;;;11.20;6.28;;;;;;;1.83;100.00;96888.81;5043105;28;20033;-79
2021/01/28 04:11:51;;;;;;;10.32;5.80;;;;;;;1.88;100.00;96885.34;5065372;28;20049;-82
2021/01/28 04:14:18;;;;;;;10.63;6.45;;;;;;;1.84;100.00;96884.28;5044976;28;20403;-80
2021/01/28 04:16:44;;;;;;;13.25;6.47;;;;;;;1.69;100.00;96874.53;5039203;28;20118;-81
2021/01/28 04:19:11;;;;;;;12.45;7.40;;;;;;;1.69;100.00;96882.53;5038596;28;20056;-82
2021/01/28 04:21:37;;;;;;;11.18;6.15;;;;;;;1.64;100.00;96869.22;5039336;28;20052;-81
2021/01/28 04:24:04;;;;;;;12.23;6.75;;;;;;;1.79;100.00;96903.00;5039352;28;20483;-81
2021/01/28 04:26:31;;;;;;;12.07;7.13;;;;;;;1.73;100.00;96888.13;5040133;28;20459;-80
2021/01/28 04:28:58;;;;;;;10.15;6.55;;;;;;;1.74;100.00;96868.34;5039811;28;20072;-81
2021/01/28 04:31:24;;;;;;;10.20;6.65;;;;;;;1.72;100.00;96873.97;5040081;28;20049;-81
2021/01/28 04:33:51;;;;;;;13.30;6.82;;;;;;;1.76;100.00;96877.69;5024054;28;20484;-81
2021/01/28 04:36:17;;;;;;;11.20;6.88;;;;;;;1.81;100.00;96866.97;5059198;28;20037;-81
2021/01/28 04:38:46;;;;;;;11.65;7.07;;;;;;;1.75;100.00;96872.63;5025089;28;20037;-81
2021/01/28 04:41:24;;;;;;;13.23;6.90;;;;;;;1.76;100.00;96864.34;5026517;28;20041;-80
2021/01/28 04:43:53;;;;;;;11.57;7.50;;;;;;;1.73;100.00;96872.13;5026422;28;20045;-80
2021/01/28 04:46:36;;;;;;;12.27;6.85;;;;;;;1.85;100.00;96877.91;5043273;28;20524;-81
2021/01/28 04:49:09;;;;;;;11.30;6.85;;;;;;;1.90;100.00;96872.53;5063805;28;20052;-81
2021/01/28 04:51:36;;;;;;;11.32;6.72;;;;;;;1.94;100.00;96864.78;5062034;28;20107;-80
2021/01/28 04:54:08;;;;;;;10.38;6.35;;;;;;;2.01;100.00;96846.56;5049420;28;20110;-80
2021/01/28 04:56:34;;;;;;;18.17;6.03;;;;;;;2.03;100.00;96842.53;5020844;28;20068;-80
2021/01/28 04:59:14;;;;;;;10.48;6.78;;;;;;;2.00;100.00;96847.63;5006650;28;20068;-79
2021/01/28 05:01:41;;;;;;;8.80;5.45;;;;;;;1.98;100.00;96823.88;5058518;28;20052;-80
2021/01/28 05:04:12;;;;;;;10.60;6.10;;;;;;;2.07;100.00;96838.22;5057903;28;20072;-80
2021/01/28 05:06:39;;;;;;;11.27;6.15;;;;;;;2.02;100.00;96843.59;5057646;28;20055;-80
2021/01/28 05:09:06;;;;;;;10.20;6.05;;;;;;;2.05;100.00;96839.56;5060151;28;20543;-80
2021/01/28 05:11:35;;;;;;;11.73;5.85;;;;;;;2.02;100.00;96840.13;5048171;28;20193;-79
2021/01/28 05:14:24;;;;;;;15.68;6.72;;;;;;;2.04;100.00;96849.44;5042610;28;20052;-80
2021/01/28 05:16:53;;;;;;;15.50;6.93;;;;;;;1.96;100.00;96847.41;5045541;28;20055;-79
2021/01/28 05:19:43;;;;;;;12.40;7.43;;;;;;;1.93;100.00;96837.28;5029463;28;20056;-80
2021/01/28 05:22:13;;;;;;;10.60;6.60;;;;;;;1.91;100.00;96844.75;5047058;28;20041;-79
2021/01/28 05:24:44;;;;;;;11.35;6.38;;;;;;;1.91;100.00;96823.41;5041983;28;20049;-79
2021/01/28 05:27:26;;;;;;;15.82;6.85;;;;;;;1.91;100.00;96831.41;5058610;28;20069;-79
2021/01/28 05:29:55;;;;;;;11.52;6.63;;;;;;;1.88;100.00;96829.31;5057592;28;20095;-79
2021/01/28 05:32:42;;;;;;;12.05;6.40;;;;;;;1.86;100.00;96824.25;5056112;28;20041;-79
2021/01/28 05:35:16;;;;;;;10.77;6.57;;;;;;;1.82;100.00;96825.88;5048538;28;20056;-79
2021/01/28 05:37:43;;;;;;;14.23;6.75;;;;;;;1.81;100.00;96818.13;5046819;28;20051;-79
2021/01/28 05:40:24;;;;;;;14.15;6.90;;;;;;;1.84;100.00;96822.94;5063432;28;20041;-80
2021/01/28 05:42:53;;;;;;;13.68;7.07;;;;;;;1.85;100.00;96819.19;5064867;28;20140;-79
2021/01/28 05:45:19;;;;;;;12.25;6.78;;;;;;;1.88;100.00;96814.06;5045020;28;20055;-80
2021/01/28 05:47:47;;;;;;;12.32;6.70;;;;;;;1.88;100.00;96799.97;5063778;28;20072;-79
2021/01/28 05:50:21;;;;;;;11.48;6.10;;;;;;;1.91;100.00;96798.59;5063665;28;20037;-79
2021/01/28 05:52:48;;;;;;;10.52;6.13;;;;;;;1.96;100.00;96799.38;5064547;28;20075;-79
2021/01/28 05:55:21;;;;;;;13.40;7.15;;;;;;;2.00;100.00;96807.59;5047560;28;20105;-79
2021/01/28 05:57:56;;;;;;;10.82;6.90;;;;;;;1.87;100.00;96796.50;5041054;28;20101;-79
2021/01/28 06:00:38;;;;;;;12.43;6.72;;;;;;;1.84;100.00;96791.72;5052144;28;20048;-79
2021/01/28 06:03:24;;;;;;;12.73;6.93;;;;;;;1.86;100.00;96792.22;5059472;28;20045;-78
2021/01/28 06:06:12;;;;;;;14.27;7.28;;;;;;;1.82;100.00;96790.41;5043654;28;20049;-79
2021/01/28 06:09:01;;;;;;;13.88;7.40;;;;;;;1.81;100.00;96792.25;5041717;28;20159;-78
2021/01/28 06:12:06;;;;;;;13.50;6.80;;;;;;;1.88;100.00;96787.41;5024862;28;20434;-79
2021/01/28 06:14:41;;;;;;;12.35;6.25;;;;;;;1.85;100.00;96787.97;5040413;28;20040;-79
2021/01/28 06:17:39;;;;;;;12.38;7.00;;;;;;;1.87;100.00;96791.16;5057277;28;20064;-79
2021/01/28 06:20:16;;;;;;;13.13;6.68;;;;;;;1.83;100.00;96787.44;5042402;28;20052;-80
2021/01/28 06:22:52;;;;;;;14.43;7.45;;;;;;;1.86;100.00;96794.88;5061287;28;20041;-79
2021/01/28 06:25:40;;;;;;;11.15;6.25;;;;;;;1.91;100.00;96796.72;5046477;28;20232;-79
2021/01/28 06:28:29;;;;;;;14.45;7.25;;;;;;;1.87;100.00;96785.81;5045664;28;20049;-79
2021/01/28 06:31:14;;;;;;;11.35;6.38;;;;;;;1.99;100.00;96782.00;5028015;28;20075;-79
2021/01/28 06:34:05;;;;;;;10.43;5.20;;;;;;;2.00;100.00;96795.03;5061799;28;20119;-79
2021/01/28 06:36:45;;;;;;;14.32;6.95;;;;;;;1.96;100.00;96788.69;5039834;28;20361;-78
2021/01/28 06:39:33;;;;;;;18.13;7.18;;;;;;;1.97;100.00;96776.13;5057552;28;20058;-80
2021/01/28 06:42:12;;;;;;;13.75;7.55;;;;;;;1.95;100.00;96770.28;5056766;28;20786;-78
2021/01/28 06:44:51;;;;;;;10.95;6.55;;;;;;;1.99;100.00;96766.75;5038878;28;20385;-83
2021/01/28 06:47:43;;;;;;;15.90;7.10;;;;;;;1.98;100.00;96775.06;5039762;28;20052;-84
2021/01/28 06:50:20;;;;;;;12.52;6.45;;;;;;;2.02;100.00;96757.38;5056363;28;20041;-84
2021/01/28 06:53:05;;;;;;;14.55;6.90;;;;;;;1.96;100.00;96767.34;5055501;28;20076;-80
2021/01/28 06:55:46;;;;;;;15.70;7.07;;;;;;;1.97;100.00;96750.22;5061232;28;20052;-80
2021/01/28 06:58:25;;;;;;;13.43;7.05;;;;;;;1.95;100.00;96756.94;5022706;28;20068;-80
2021/01/28 07:00:59;;;;;;;15.73;6.95;;;;;;;1.86;100.00;96751.41;5021350;28;20563;-79
2021/01/28 07:03:58;;;;;;;14.40;7.20;;;;;;;1.89;100.00;96753.50;5041631;28;20046;-83
2021/01/28 07:07:01;;;;;;;11.05;6.70;;;;;;;1.88;100.00;96757.28;5021685;28;20061;-79
2021/01/28 07:09:41;;;;;;;15.35;7.95;;;;;;;1.89;100.00;96761.50;4990753;28;20380;-78
2021/01/28 07:12:11;;;;;;;15.57;6.68;;;;;;;1.89;100.00;96745.50;5036638;28;20071;-77
2021/01/28 07:14:38;;;;;;;13.85;7.85;;;;;;;1.91;100.00;96754.00;5035832;28;20045;-79
2021/01/28 07:17:15;;;;;;;16.75;7.38;;;;;;;1.91;100.00;96742.56;5019339;28;20047;-79
2021/01/28 07:19:58;;;;;;;13.80;7.05;;;;;;;1.94;100.00;96732.09;5023070;28;20045;-79
2021/01/28 07:22:41;;;;;;;12.52;6.35;;;;;;;2.02;100.00;96728.03;5040058;28;20060;-79
2021/01/28 07:25:29;;;;;;;14.00;6.18;;;;;;;2.08;100.00;96729.59;5022898;28;20133;-79
2021/01/28 07:28:18;;;;;;;13.43;6.57;;;;;;;2.06;100.00;96724.53;5019981;28;20148;-80
2021/01/28 07:30:46;;;;;;;19.70;6.88;;;;;;;2.02;100.00;96715.50;5039589;28;20116;-78
2021/01/28 07:33:25;;;;;;;10.43;6.60;;;;;;;2.12;100.00;96710.03;5033096;28;20041;-79
2021/01/28 07:36:25;;;;;;;14.13;7.25;;;;;;;2.14;100.00;96709.78;5051443;28;20055;-80
2021/01/28 07:38:55;;;;;;;14.52;6.30;;;;;;;2.15;100.00;96708.69;5051333;28;20423;-79
2021/01/28 07:41:39;;;;;;;12.32;6.60;;;;;;;2.17;100.00;96698.53;5032610;28;20045;-78
2021/01/28 07:44:24;;;;;;;13.15;6.40;;;;;;;2.26;100.00;96702.97;5034293;28;20045;-81
2021/01/28 07:46:55;;;;;;;13.43;6.85;;;;;;;2.23;100.00;96690.16;5010874;28;20034;-80
2021/01/28 07:49:23;;;;;;;13.70;6.78;;;;;;;2.28;100.00;96679.44;5047492;28;20033;-81
2021/01/28 07:52:02;;;;;;;12.23;5.85;;;;;;;2.36;100.00;96676.13;5028072;28;20048;-81
2021/01/28 07:54:29;;;;;;;13.27;6.82;;;;;;;2.35;100.00;96679.06;5046650;28;20125;-81
2021/01/28 07:57:11;;;;;;;16.05;6.60;;;;;;;2.38;100.00;96673.97;5044869;28;20037;-81
2021/01/28 08:00:01;;;;;;;14.23;6.43;;;;;;;2.34;100.00;96667.63;5029120;28;20033;-80
2021/01/28 08:02:35;;;;;;;13.40;6.28;;;;;;;2.36;100.00;96676.13;5028122;28;20041;-80
2021/01/28 08:05:04;;;;;;;13.45;6.53;;;;;;;2.33;100.00;96667.88;5034298;28;20041;-82
2021/01/28 08:07:45;;;;;;;11.95;7.10;;;;;;;2.24;100.00;96675.75;5019061;28;20042;-77
2021/01/28 08:10:25;;;;;;;13.75;6.93;;;;;;;2.29;100.00;96672.22;5019190;28;20084;-79
2021/01/28 08:12:54;;;;;;;12.88;6.82;;;;;;;2.32;100.00;96663.66;5018595;28;20049;-78
2021/01/28 08:15:31;;;;;;;16.23;7.30;;;;;;;2.39;100.00;96666.75;5021883;28;20053;-78
2021/01/28 08:18:12;;;;;;;14.00;6.78;;;;;;;2.40;100.00;96666.47;5020222;28;20042;-81
2021/01/28 08:20:39;;;;;;;16.02;7.65;;;;;;;2.37;100.00;96653.69;5003045;28;20041;-82
2021/01/28 08:23:13;;;;;;;14.52;7.47;;;;;;;2.39;100.00;96662.22;5018263;28;20049;-81
2021/01/28 08:25:57;;;;;;;19.95;7.63;;;;;;;2.38;100.00;96657.94;5001283;28;20093;-80
2021/01/28 08:28:25;;;;;;;12.32;7.07;;;;;;;2.41;100.00;96657.38;5024365;28;20495;-80
2021/01/28 08:31:00;;;;;;;14.13;7.43;;;;;;;2.44;100.00;96658.69;5020115;28;20056;-80
2021/01/28 08:33:28;;;;;;;18.77;8.25;;;;;;;2.43;100.00;96651.72;5018143;28;20057;-80
2021/01/28 08:36:01;;;;;;;15.40;7.13;;;;;;;2.43;100.00;96644.53;5036453;28;20053;-80
2021/01/28 08:38:33;;;;;;;13.50;7.18;;;;;;;2.48;100.00;96647.13;5003733;28;20068;-80
2021/01/28 08:41:05;;;;;;;15.90;7.35;;;;;;;2.53;100.00;96648.16;5021456;28;20042;-80
2021/01/28 08:43:31;;;;;;;16.70;7.95;;;;;;;2.55;100.00;96652.13;5020696;28;20061;-81
2021/01/28 08:46:06;;;;;;;15.52;7.95;;;;;;;2.55;100.00;96652.13;5014583;28;20049;-80
2021/01/28 08:48:34;;;;;;;20.02;7.47;;;;;;;2.57;100.00;96641.16;5032565;28;20105;-80
2021/01/28 08:51:26;;;;;;;14.80;7.53;;;;;;;2.60;100.00;96645.91;5033856;28;20300;-79
2021/01/28 08:54:00;;;;;;;16.90;7.70;;;;;;;2.58;100.00;96632.06;5008372;28;20049;-79
2021/01/28 08:56:33;;;;;;;14.63;7.60;;;;;;;2.58;100.00;96634.75;5038765;28;20068;-80
2021/01/28 08:59:06;;;;;;;15.48;7.45;;;;;;;2.62;100.00;96627.72;5023866;28;20411;-81
2021/01/28 09:01:53;;;;;;;17.63;7.07;;;;;;;2.67;100.00;96628.44;5025125;28;20389;-80
2021/01/28 09:04:32;;;;;;;19.30;7.43;;;;;;;2.68;100.00;96621.25;5057136;28;20455;-81
2021/01/28 09:07:00;;;;;;;15.77;7.13;;;;;;;2.59;100.00;96615.75;5033726;28;20053;-80
2021/01/28 09:09:34;;;;;;;15.82;7.20;;;;;;;2.67;100.00;96627.66;5018925;28;20112;-80
2021/01/28 09:12:27;;;;;;;15.52;7.53;;;;;;;2.68;100.00;96629.25;5040568;28;20041;-79
2021/01/28 09:15:24;;;;;;;16.20;7.68;;;;;;;2.65;100.00;96605.78;5064223;23;20126;-78
2021/01/28 09:17:52;;;;;;;14.88;7.30;;;;;;;2.71;100.00;96618.00;5054744;28;20044;-80
2021/01/28 09:20:37;;;;;;;15.63;7.40;;;;;;;2.68;100.00;96623.91;5055529;28;20040;-79
2021/01/28 09:23:11;;;;;;;16.37;7.83;;;;;;;2.70;100.00;96611.84;5038094;28;20045;-79
2021/01/28 09:25:42;;;;;;;15.82;7.20;;;;;;;2.70;100.00;96609.19;5047904;28;20753;-79
2021/01/28 09:28:29;;;;;;;13.07;6.85;;;;;;;2.76;100.00;96604.56;5056126;28;20052;-80
2021/01/28 09:30:55;;;;;;;13.07;6.53;;;;;;;2.57;100.00;96577.03;5054725;28;20045;-81
2021/01/28 09:33:39;;;;;;;13.90;6.40;;;;;;;2.69;100.00;96590.75;5051065;28;20053;-80
2021/01/28 09:36:25;;;;;;;14.43;5.82;;;;;;;2.71;100.00;96588.59;5055760;28;20045;-80
2021/01/28 09:39:03;;;;;;;12.18;5.63;;;;;;;2.73;100.00;96594.44;5053630;28;20049;-80
2021/01/28 09:41:41;;;;;;;14.75;5.43;;;;;;;2.73;100.00;96584.56;5037909;28;20045;-80
2021/01/28 09:44:49;;;;;;;9.95;4.90;;;;;;;2.74;100.00;96578.09;5055082;28;20151;-80
2021/01/28 09:47:17;;;;;;;13.20;5.45;;;;;;;2.75;100.00;96586.94;4975580;28;20133;-80
2021/01/28 09:49:49;;;;;;;11.50;5.50;;;;;;;2.77;100.00;96590.91;4978307;28;20125;-80
2021/01/28 09:52:40;;;;;;;12.80;5.15;;;;;;;2.88;100.00;96597.69;5027906;28;20076;-79
2021/01/28 09:55:09;;;;;;;13.18;5.22;;;;;;;2.86;100.00;96602.53;5053210;28;20045;-79
2021/01/28 09:57:36;;;;;;;12.05;5.25;;;;;;;2.90;100.00;96590.16;5055137;28;20124;-78
2021/01/28 10:00:09;;;;;;;9.52;4.97;;;;;;;2.99;100.00;96582.28;5037668;28;20514;-79
2021/01/28 10:02:58;;;;;;;9.85;4.85;;;;;;;3.03;100.00;96597.44;5048095;28;20440;-79
2021/01/28 10:05:28;;;;;;;11.32;4.63;;;;;;;3.04;100.00;96591.00;5042074;28;20543;-79
2021/01/28 10:07:56;;;;;;;13.32;4.97;;;;;;;3.05;100.00;96571.19;5045379;28;20114;-79
2021/01/28 10:10:27;;;;;;;11.35;4.75;;;;;;;3.10;100.00;96562.28;5044778;28;20052;-80
2021/01/28 10:12:56;;;;;;;11.77;4.28;;;;;;;3.06;100.00;96550.63;5044168;28;20118;-80
2021/01/28 10:15:26;;;;;;;9.18;4.65;;;;;;;2.99;100.00;96534.16;5035395;28;20084;-80
2021/01/28 10:17:55;;;;;;;11.00;4.65;;;;;;;3.08;100.00;96540.41;5043748;28;20045;-80
2021/01/28 10:20:22;;;;;;;14.43;4.88;;;;;;;3.13;100.00;96533.09;5043883;28;20069;-80
2021/01/28 10:22:51;;;;;;;10.55;4.90;;;;;;;3.11;100.00;96527.25;5043902;28;20128;-79
2021/01/28 10:25:20;;;;;;;9.68;4.80;;;;;;;3.19;100.00;96533.00;5044088;28;20060;-79
2021/01/28 10:27:46;;;;;;;13.13;4.82;;;;;;;3.18;100.00;96524.19;5047409;28;20048;-80
2021/01/28 10:30:16;;;;;;;12.13;5.10;;;;;;;3.26;100.00;96518.16;5024866;28;20206;-79
2021/01/28 10:32:48;;;;;;;13.50;5.10;;;;;;;3.27;100.00;96514.41;5030338;28;20409;-79
2021/01/28 10:35:20;;;;;;;16.02;5.18;;;;;;;3.29;100.00;96514.09;5043725;28;20292;-79
2021/01/28 10:37:48;;;;;;;14.30;5.22;;;;;;;3.21;100.00;96507.56;5045295;28;20382;-80
2021/01/28 10:40:17;;;;;;;12.40;5.07;;;;;;;3.15;100.00;96490.81;5044934;28;20128;-80
2021/01/28 10:42:45;;;;;;;12.93;5.03;;;;;;;3.24;100.00;96492.81;5047101;28;20041;-81
2021/01/28 10:45:21;;;;;;;14.00;5.35;;;;;;;3.15;100.00;96480.13;5051663;28;20048;-80
2021/01/28 10:47:48;;;;;;;16.35;5.15;;;;;;;3.15;100.00;96472.09;5045511;28;20101;-80
2021/01/28 10:50:32;;;;;;;16.25;5.70;;;;;;;3.22;100.00;96461.03;5045111;28;20040;-79
2021/01/28 10:52:59;;;;;;;12.25;4.20;;;;;;;3.20;100.00;96465.09;5026310;28;20112;-79
2021/01/28 10:55:27;;;;;;;12.90;4.43;;;;;;;3.27;100.00;96458.25;5028983;28;20056;-79
2021/01/28 10:57:53;;;;;;;9.32;4.53;;;;;;;3.32;100.00;96447.47;5037845;28;20053;-80
2021/01/28 11:00:20;;;;;;;12.18;4.63;;;;;;;3.33;100.00;96443.69;5053829;28;20041;-79
2021/01/28 11:02:48;;;;;;;14.23;4.90;;;;;;;3.33;100.00;96449.03;5053915;28;20118;-79
2021/01/28 11:05:19;;;;;;;10.13;4.47;;;;;;;3.36;100.00;96426.25;5038325;28;20087;-79
2021/01/28 11:07:46;;;;;;;8.20;4.20;;;;;;;3.39;100.00;96433.69;5054234;28;20078;-79
2021/01/28 11:10:13;;;;;;;11.93;4.10;;;;;;;3.41;100.00;96418.13;5053403;28;20047;-79
2021/01/28 11:12:39;;;;;;;9.52;4.10;;;;;;;3.48;100.00;96413.97;5052530;28;20049;-78
2021/01/28 11:15:07;;;;;;;7.82;3.38;;;;;;;3.47;100.00;96412.38;5050208;28;20045;-79
2021/01/28 11:17:34;;;;;;;9.35;3.90;;;;;;;3.45;100.00;96408.44;5033110;28;20512;-78
2021/01/28 11:20:00;;;;;;;8.90;3.50;;;;;;;3.43;100.00;96414.06;5042243;28;20422;-78
2021/01/28 11:22:27;;;;;;;15.70;4.15;;;;;;;3.48;100.00;96405.16;5035422;28;20426;-80
2021/01/28 11:24:53;;;;;;;8.13;3.65;;;;;;;3.39;100.00;96394.34;5013498;28;20049;-78
2021/01/28 11:27:19;;;;;;;14.00;3.88;;;;;;;3.24;100.00;96394.69;5036886;28;20120;-78
2021/01/28 11:29:45;;;;;;;11.38;3.35;;;;;;;3.26;100.00;96402.38;5042571;28;20603;-79
2021/01/28 11:32:12;;;;;;;8.93;3.53;;;;;;;3.26;100.00;96402.38;5043330;28;20060;-78
2021/01/28 11:34:41;;;;;;;7.72;3.30;;;;;;;3.22;100.00;96394.19;5013238;28;20292;-79
2021/01/28 11:37:07;;;;;;;12.43;3.47;;;;;;;3.05;100.00;96392.09;5031612;28;20042;-80
2021/01/28 11:39:36;;;;;;;15.40;3.63;;;;;;;3.09;100.00;96394.97;5014425;28;20056;-79
2021/01/28 11:42:02;;;;;;;15.23;4.05;;;;;;;3.01;100.00;96387.66;5015640;28;20132;-79
2021/01/28 11:44:28;;;;;;;8.70;4.00;;;;;;;3.09;100.00;96384.28;5033289;28;20105;-79
2021/01/28 11:46:57;;;;;;;9.00;3.20;;;;;;;3.02;100.00;96379.31;5016961;28;20044;-78
2021/01/28 11:49:24;;;;;;;8.77;3.95;;;;;;;2.95;100.00;96383.47;5033118;28;20048;-79
2021/01/28 11:51:51;;;;;;;12.40;3.42;;;;;;;2.95;100.00;96381.59;5013381;28;20041;-78